sensor_id;sensor_type;location;lat;lon;timestamp;pressure;altitude;pressure_sealevel;temperature;humidity
56182;BME280;51963;46.052;14.544;2022-11-15T00:00:58;98536.41;;;9.12;100.00
56182;BME280;51963;46.052;14.544;2022-11-15T00:03:42;98529.50;;;9.10;100.00
56182;BME280;51963;46.052;14.544;2022-11-15T00:06:26;98526.84;;;9.10;100.00
56182;BME280;51963;46.052;14.544;2022-11-15T00:09:11;98520.47;;;9.28;100.00
56182;BME280;51963;46.052;14.544;2022-11-15T00:11:55;98530.13;;;9.36;100.00
56182;BME280;51963;46.052;14.544;2022-11-15T00:14:40;98525.09;;;9.49;100.00
56182;BME280;51963;46.052;14.544;2022-11-15T00:17:24;98514.53;;;9.49;100.00
56182;BME280;51963;46.052;14.544;2022-11-15T00:20:08;98524.78;;;9.44;100.00
56182;BME280;51963;46.052;14.544;2022-11-15T00:22:52;98526.16;;;9.40;100.00
56182;BME280;51963;46.052;14.544;2022-11-15T00:25:37;98518.88;;;9.42;100.00
56182;BME280;51963;46.052;14.544;2022-11-15T00:28:21;98519.00;;;9.49;100.00
56182;BME280;51963;46.052;14.544;2022-11-15T00:31:09;98517.22;;;9.41;100.00
56182;BME280;51963;46.052;14.544;2022-11-15T00:33:55;98504.44;;;9.30;100.00
56182;BME280;51963;46.052;14.544;2022-11-15T00:36:39;98509.09;;;9.28;100.00
56182;BME280;51963;46.052;14.544;2022-11-15T00:39:23;98504.63;;;9.51;100.00
56182;BME280;51963;46.052;14.544;2022-11-15T00:42:08;98494.00;;;9.60;100.00
56182;BME280;51963;46.052;14.544;2022-11-15T00:44:52;98501.47;;;9.71;100.00
56182;BME280;51963;46.052;14.544;2022-11-15T00:47:36;98503.31;;;9.47;100.00
56182;BME280;51963;46.052;14.544;2022-11-15T00:50:21;98498.94;;;9.39;100.00
56182;BME280;51963;46.052;14.544;2022-11-15T00:53:05;98503.03;;;9.42;100.00
56182;BME280;51963;46.052;14.544;2022-11-15T00:55:49;98495.19;;;9.57;100.00
56182;BME280;51963;46.052;14.544;2022-11-15T00:58:33;98484.16;;;9.53;100.00
56182;BME280;51963;46.052;14.544;2022-11-15T01:01:17;98488.94;;;9.73;100.00
56182;BME280;51963;46.052;14.544;2022-11-15T01:04:02;98486.50;;;9.48;100.00
56182;BME280;51963;46.052;14.544;2022-11-15T01:06:46;98482.06;;;9.25;100.00
56182;BME280;51963;46.052;14.544;2022-11-15T01:09:31;98488.16;;;9.26;100.00
56182;BME280;51963;46.052;14.544;2022-11-15T01:12:15;98476.88;;;9.56;100.00
56182;BME280;51963;46.052;14.544;2022-11-15T01:14:59;98473.06;;;9.35;100.00
56182;BME280;51963;46.052;14.544;2022-11-15T01:17:43;98468.94;;;9.17;100.00
56182;BME280;51963;46.052;14.544;2022-11-15T01:20:27;98479.25;;;9.27;100.00
56182;BME280;51963;46.052;14.544;2022-11-15T01:23:12;98467.16;;;9.56;100.00
56182;BME280;51963;46.052;14.544;2022-11-15T01:26:03;98475.19;;;9.78;100.00
56182;BME280;51963;46.052;14.544;2022-11-15T01:28:48;98464.00;;;9.76;100.00
56182;BME280;51963;46.052;14.544;2022-11-15T01:31:32;98457.63;;;9.85;100.00
56182;BME280;51963;46.052;14.544;2022-11-15T01:34:16;98454.13;;;9.54;100.00
56182;BME280;51963;46.052;14.544;2022-11-15T01:37:01;98462.16;;;9.76;100.00
56182;BME280;51963;46.052;14.544;2022-11-15T01:39:45;98457.97;;;9.67;100.00
56182;BME280;51963;46.052;14.544;2022-11-15T01:42:29;98451.13;;;9.58;100.00
56182;BME280;51963;46.052;14.544;2022-11-15T01:45:15;98450.88;;;9.29;100.00
56182;BME280;51963;46.052;14.544;2022-11-15T01:47:59;98456.41;;;9.58;100.00
56182;BME280;51963;46.052;14.544;2022-11-15T01:50:44;98454.75;;;9.57;100.00
56182;BME280;51963;46.052;14.544;2022-11-15T01:53:29;98445.41;;;9.69;100.00
56182;BME280;51963;46.052;14.544;2022-11-15T01:56:22;98433.31;;;9.75;100.00
56182;BME280;51963;46.052;14.544;2022-11-15T01:59:08;98443.59;;;9.69;100.00
56182;BME280;51963;46.052;14.544;2022-11-15T02:01:52;98439.75;;;9.72;100.00
56182;BME280;51963;46.052;14.544;2022-11-15T02:04:45;98440.28;;;9.52;100.00
56182;BME280;51963;46.052;14.544;2022-11-15T02:07:31;98438.78;;;9.35;100.00
56182;BME280;51963;46.052;14.544;2022-11-15T02:10:21;98441.13;;;9.30;100.00
56182;BME280;51963;46.052;14.544;2022-11-15T02:13:05;98428.38;;;9.18;100.00
56182;BME280;51963;46.052;14.544;2022-11-15T02:15:58;98432.00;;;9.17;100.00
56182;BME280;51963;46.052;14.544;2022-11-15T02:18:54;98437.44;;;9.39;100.00
56182;BME280;51963;46.052;14.544;2022-11-15T02:30:47;98423.38;;;9.23;100.00
56182;BME280;51963;46.052;14.544;2022-11-15T02:37:25;98416.44;;;9.61;100.00
56182;BME280;51963;46.052;14.544;2022-11-15T02:40:38;98417.34;;;9.53;100.00
56182;BME280;51963;46.052;14.544;2022-11-15T02:43:51;98403.69;;;9.49;100.00
56182;BME280;51963;46.052;14.544;2022-11-15T02:46:45;98408.16;;;9.49;100.00
56182;BME280;51963;46.052;14.544;2022-11-15T02:49:52;98396.84;;;9.40;100.00
56182;BME280;51963;46.052;14.544;2022-11-15T02:52:37;98392.84;;;9.29;100.00
56182;BME280;51963;46.052;14.544;2022-11-15T03:05:37;98393.50;;;9.08;100.00
56182;BME280;51963;46.052;14.544;2022-11-15T03:11:19;98391.84;;;9.07;100.00
56182;BME280;51963;46.052;14.544;2022-11-15T03:14:21;98381.31;;;9.07;100.00
56182;BME280;51963;46.052;14.544;2022-11-15T03:20:11;98367.44;;;8.90;100.00
56182;BME280;51963;46.052;14.544;2022-11-15T03:23:04;98368.16;;;8.84;100.00
56182;BME280;51963;46.052;14.544;2022-11-15T03:25:50;98371.88;;;8.89;100.00
56182;BME280;51963;46.052;14.544;2022-11-15T03:28:42;98373.53;;;8.90;100.00
56182;BME280;51963;46.052;14.544;2022-11-15T03:31:31;98357.59;;;8.84;100.00
56182;BME280;51963;46.052;14.544;2022-11-15T03:34:58;98377.16;;;9.13;100.00
56182;BME280;51963;46.052;14.544;2022-11-15T03:37:57;98377.03;;;9.06;100.00
56182;BME280;51963;46.052;14.544;2022-11-15T03:41:05;98379.38;;;9.01;100.00
56182;BME280;51963;46.052;14.544;2022-11-15T03:43:57;98379.03;;;9.04;100.00
56182;BME280;51963;46.052;14.544;2022-11-15T03:46:53;98380.66;;;9.05;100.00
56182;BME280;51963;46.052;14.544;2022-11-15T03:49:44;98381.81;;;9.25;100.00
56182;BME280;51963;46.052;14.544;2022-11-15T03:52:32;98373.38;;;9.30;100.00
56182;BME280;51963;46.052;14.544;2022-11-15T03:55:20;98373.25;;;9.23;100.00
56182;BME280;51963;46.052;14.544;2022-11-15T03:58:05;98366.53;;;9.21;100.00
56182;BME280;51963;46.052;14.544;2022-11-15T04:00:49;98358.34;;;9.31;100.00
56182;BME280;51963;46.052;14.544;2022-11-15T04:03:33;98370.09;;;9.28;100.00
56182;BME280;51963;46.052;14.544;2022-11-15T04:06:17;98358.25;;;9.39;100.00
56182;BME280;51963;46.052;14.544;2022-11-15T04:09:02;98358.09;;;9.41;100.00
56182;BME280;51963;46.052;14.544;2022-11-15T04:11:46;98358.63;;;9.36;100.00
56182;BME280;51963;46.052;14.544;2022-11-15T04:14:30;98369.03;;;9.14;100.00
56182;BME280;51963;46.052;14.544;2022-11-15T04:17:14;98357.47;;;9.00;100.00
56182;BME280;51963;46.052;14.544;2022-11-15T04:19:58;98355.34;;;8.95;100.00
56182;BME280;51963;46.052;14.544;2022-11-15T04:23:04;98359.63;;;9.20;100.00
56182;BME280;51963;46.052;14.544;2022-11-15T04:26:14;98354.28;;;9.05;100.00
56182;BME280;51963;46.052;14.544;2022-11-15T04:29:00;98342.06;;;9.27;100.00
56182;BME280;51963;46.052;14.544;2022-11-15T04:32:04;98342.31;;;9.17;100.00
56182;BME280;51963;46.052;14.544;2022-11-15T04:34:49;98345.00;;;8.94;100.00
56182;BME280;51963;46.052;14.544;2022-11-15T04:37:33;98351.84;;;9.03;100.00
56182;BME280;51963;46.052;14.544;2022-11-15T04:40:18;98349.38;;;9.02;100.00
56182;BME280;51963;46.052;14.544;2022-11-15T04:43:02;98334.03;;;9.20;100.00
56182;BME280;51963;46.052;14.544;2022-11-15T04:45:46;98343.31;;;9.16;100.00
56182;BME280;51963;46.052;14.544;2022-11-15T04:48:31;98329.00;;;8.95;100.00
56182;BME280;51963;46.052;14.544;2022-11-15T04:51:15;98341.53;;;8.93;100.00
56182;BME280;51963;46.052;14.544;2022-11-15T04:54:00;98335.81;;;9.05;100.00
56182;BME280;51963;46.052;14.544;2022-11-15T04:56:44;98343.38;;;9.08;100.00
56182;BME280;51963;46.052;14.544;2022-11-15T04:59:28;98332.84;;;9.08;100.00
56182;BME280;51963;46.052;14.544;2022-11-15T05:02:12;98326.63;;;9.01;100.00
56182;BME280;51963;46.052;14.544;2022-11-15T05:04:56;98346.56;;;9.03;100.00
56182;BME280;51963;46.052;14.544;2022-11-15T05:07:40;98334.47;;;9.09;100.00
56182;BME280;51963;46.052;14.544;2022-11-15T05:10:25;98335.41;;;9.16;100.00
56182;BME280;51963;46.052;14.544;2022-11-15T05:13:09;98334.03;;;9.05;100.00
56182;BME280;51963;46.052;14.544;2022-11-15T05:15:53;98334.75;;;8.99;100.00
56182;BME280;51963;46.052;14.544;2022-11-15T05:18:37;98335.91;;;8.97;100.00
56182;BME280;51963;46.052;14.544;2022-11-15T05:21:24;98325.47;;;9.03;100.00
56182;BME280;51963;46.052;14.544;2022-11-15T05:24:10;98327.31;;;9.18;100.00
56182;BME280;51963;46.052;14.544;2022-11-15T05:26:55;98320.28;;;9.10;100.00
56182;BME280;51963;46.052;14.544;2022-11-15T05:29:39;98316.72;;;9.03;100.00
56182;BME280;51963;46.052;14.544;2022-11-15T05:32:23;98310.56;;;9.25;100.00
56182;BME280;51963;46.052;14.544;2022-11-15T05:35:30;98298.19;;;9.11;100.00
56182;BME280;51963;46.052;14.544;2022-11-15T05:38:15;98319.94;;;9.13;100.00
56182;BME280;51963;46.052;14.544;2022-11-15T05:41:00;98312.72;;;9.07;100.00
56182;BME280;51963;46.052;14.544;2022-11-15T05:43:45;98318.56;;;9.02;100.00
56182;BME280;51963;46.052;14.544;2022-11-15T05:46:33;98314.44;;;9.00;100.00
56182;BME280;51963;46.052;14.544;2022-11-15T05:49:20;98309.28;;;9.06;100.00
56182;BME280;51963;46.052;14.544;2022-11-15T05:52:07;98322.66;;;9.05;100.00
56182;BME280;51963;46.052;14.544;2022-11-15T05:54:53;98318.56;;;9.02;100.00
56182;BME280;51963;46.052;14.544;2022-11-15T05:57:39;98318.38;;;9.04;100.00
56182;BME280;51963;46.052;14.544;2022-11-15T06:00:23;98327.19;;;9.11;100.00
56182;BME280;51963;46.052;14.544;2022-11-15T06:03:08;98320.00;;;9.05;100.00
56182;BME280;51963;46.052;14.544;2022-11-15T06:05:52;98325.75;;;9.08;100.00
56182;BME280;51963;46.052;14.544;2022-11-15T06:08:36;98325.69;;;9.17;100.00
56182;BME280;51963;46.052;14.544;2022-11-15T06:11:20;98316.66;;;9.11;100.00
56182;BME280;51963;46.052;14.544;2022-11-15T06:14:11;98329.03;;;9.25;100.00
56182;BME280;51963;46.052;14.544;2022-11-15T06:16:55;98329.97;;;9.33;100.00
56182;BME280;51963;46.052;14.544;2022-11-15T06:19:39;98335.50;;;9.23;100.00
56182;BME280;51963;46.052;14.544;2022-11-15T06:22:23;98343.31;;;9.16;100.00
56182;BME280;51963;46.052;14.544;2022-11-15T06:25:35;98346.16;;;9.30;100.00
56182;BME280;51963;46.052;14.544;2022-11-15T06:28:18;98340.69;;;9.16;100.00
56182;BME280;51963;46.052;14.544;2022-11-15T06:31:07;98347.50;;;9.10;100.00
56182;BME280;51963;46.052;14.544;2022-11-15T06:33:51;98342.38;;;9.09;100.00
56182;BME280;51963;46.052;14.544;2022-11-15T06:36:36;98339.94;;;9.07;100.00
56182;BME280;51963;46.052;14.544;2022-11-15T06:39:20;98327.56;;;9.08;100.00
56182;BME280;51963;46.052;14.544;2022-11-15T06:42:04;98348.06;;;9.21;100.00
56182;BME280;51963;46.052;14.544;2022-11-15T06:44:48;98346.31;;;9.13;100.00
56182;BME280;51963;46.052;14.544;2022-11-15T06:47:33;98349.59;;;9.15;100.00
56182;BME280;51963;46.052;14.544;2022-11-15T06:50:17;98347.59;;;9.17;100.00
56182;BME280;51963;46.052;14.544;2022-11-15T06:53:03;98345.59;;;9.19;100.00
56182;BME280;51963;46.052;14.544;2022-11-15T06:55:48;98340.09;;;9.06;100.00
56182;BME280;51963;46.052;14.544;2022-11-15T06:58:33;98354.28;;;9.05;100.00
56182;BME280;51963;46.052;14.544;2022-11-15T07:01:17;98351.56;;;9.13;100.00
56182;BME280;51963;46.052;14.544;2022-11-15T07:04:01;98347.22;;;9.20;100.00
56182;BME280;51963;46.052;14.544;2022-11-15T07:06:46;98351.44;;;9.30;100.00
56182;BME280;51963;46.052;14.544;2022-11-15T07:09:31;98345.44;;;9.36;100.00
56182;BME280;51963;46.052;14.544;2022-11-15T07:12:15;98346.16;;;9.30;100.00
56182;BME280;51963;46.052;14.544;2022-11-15T07:15:00;98347.78;;;9.31;100.00
56182;BME280;51963;46.052;14.544;2022-11-15T07:17:44;98350.19;;;9.56;100.00
56182;BME280;51963;46.052;14.544;2022-11-15T07:20:28;98358.13;;;9.71;100.00
56182;BME280;51963;46.052;14.544;2022-11-15T07:23:13;98347.63;;;9.77;100.00
56182;BME280;51963;46.052;14.544;2022-11-15T07:25:58;98355.34;;;9.94;100.00
56182;BME280;51963;46.052;14.544;2022-11-15T07:28:42;98352.13;;;10.13;100.00
56182;BME280;51963;46.052;14.544;2022-11-15T07:31:26;98333.63;;;10.28;100.00
56182;BME280;51963;46.052;14.544;2022-11-15T07:34:11;98349.16;;;10.38;100.00
56182;BME280;51963;46.052;14.544;2022-11-15T07:36:55;98348.81;;;10.41;100.00
56182;BME280;51963;46.052;14.544;2022-11-15T07:39:39;98330.94;;;10.44;100.00
56182;BME280;51963;46.052;14.544;2022-11-15T07:42:23;98350.16;;;10.52;100.00
56182;BME280;51963;46.052;14.544;2022-11-15T07:45:26;98344.94;;;10.07;100.00
56182;BME280;51963;46.052;14.544;2022-11-15T07:48:10;98342.63;;;9.82;100.00
56182;BME280;51963;46.052;14.544;2022-11-15T07:50:55;98337.22;;;9.91;100.00
56182;BME280;51963;46.052;14.544;2022-11-15T07:53:39;98342.25;;;9.86;100.00
56182;BME280;51963;46.052;14.544;2022-11-15T07:56:23;98340.69;;;10.06;100.00
56182;BME280;51963;46.052;14.544;2022-11-15T07:59:07;98339.44;;;10.39;100.00
56182;BME280;51963;46.052;14.544;2022-11-15T08:01:51;98337.38;;;10.56;100.00
56182;BME280;51963;46.052;14.544;2022-11-15T08:04:36;98338.91;;;10.65;100.00
56182;BME280;51963;46.052;14.544;2022-11-15T08:07:20;98335.47;;;10.50;100.00
56182;BME280;51963;46.052;14.544;2022-11-15T08:10:05;98337.66;;;10.61;100.00
56182;BME280;51963;46.052;14.544;2022-11-15T08:13:04;98332.03;;;10.71;100.00
56182;BME280;51963;46.052;14.544;2022-11-15T08:15:49;98325.00;;;10.78;100.00
56182;BME280;51963;46.052;14.544;2022-11-15T08:18:34;98326.81;;;10.78;100.00
56182;BME280;51963;46.052;14.544;2022-11-15T08:21:19;98321.41;;;10.86;100.00
56182;BME280;51963;46.052;14.544;2022-11-15T08:24:05;98321.25;;;10.51;100.00
56182;BME280;51963;46.052;14.544;2022-11-15T08:26:49;98312.91;;;10.47;100.00
56182;BME280;51963;46.052;14.544;2022-11-15T08:29:33;98308.72;;;10.38;100.00
56182;BME280;51963;46.052;14.544;2022-11-15T08:32:17;98305.47;;;10.57;100.00
56182;BME280;51963;46.052;14.544;2022-11-15T08:35:02;98303.63;;;10.58;100.00
56182;BME280;51963;46.052;14.544;2022-11-15T08:37:47;98302.66;;;10.22;100.00
56182;BME280;51963;46.052;14.544;2022-11-15T08:40:31;98311.28;;;10.46;100.00
56182;BME280;51963;46.052;14.544;2022-11-15T08:43:15;98307.81;;;10.67;100.00
56182;BME280;51963;46.052;14.544;2022-11-15T08:46:00;98311.31;;;10.96;100.00
56182;BME280;51963;46.052;14.544;2022-11-15T08:48:44;98307.81;;;10.89;100.00
56182;BME280;51963;46.052;14.544;2022-11-15T08:51:29;98313.91;;;10.90;100.00
56182;BME280;51963;46.052;14.544;2022-11-15T08:54:13;98317.50;;;10.82;100.00
56182;BME280;51963;46.052;14.544;2022-11-15T08:56:57;98321.03;;;11.18;100.00
56182;BME280;51963;46.052;14.544;2022-11-15T08:59:41;98314.16;;;11.23;100.00
56182;BME280;51963;46.052;14.544;2022-11-15T09:02:25;98322.88;;;11.52;100.00
56182;BME280;51963;46.052;14.544;2022-11-15T09:05:09;98318.94;;;11.41;100.00
56182;BME280;51963;46.052;14.544;2022-11-15T09:07:54;98297.53;;;11.36;100.00
56182;BME280;51963;46.052;14.544;2022-11-15T09:10:38;98325.31;;;11.47;100.00
56182;BME280;51963;46.052;14.544;2022-11-15T09:13:22;98322.09;;;11.58;100.00
56182;BME280;51963;46.052;14.544;2022-11-15T09:16:06;98317.00;;;11.57;100.00
56182;BME280;51963;46.052;14.544;2022-11-15T09:18:51;98317.16;;;11.49;100.00
56182;BME280;51963;46.052;14.544;2022-11-15T09:21:42;98319.53;;;11.72;100.00
56182;BME280;51963;46.052;14.544;2022-11-15T09:24:26;98314.63;;;11.69;100.00
56182;BME280;51963;46.052;14.544;2022-11-15T09:27:10;98307.53;;;11.83;100.00
56182;BME280;51963;46.052;14.544;2022-11-15T09:29:55;98305.56;;;11.98;100.00
56182;BME280;51963;46.052;14.544;2022-11-15T09:32:39;98303.00;;;12.05;100.00
56182;BME280;51963;46.052;14.544;2022-11-15T09:35:24;98290.81;;;12.31;100.00
56182;BME280;51963;46.052;14.544;2022-11-15T09:38:08;98304.75;;;12.80;100.00
56182;BME280;51963;46.052;14.544;2022-11-15T09:46:45;98293.50;;;13.18;100.00
56182;BME280;51963;46.052;14.544;2022-11-15T09:49:16;98296.56;;;13.22;100.00
56182;BME280;51963;46.052;14.544;2022-11-15T09:51:56;98290.03;;;12.84;100.00
56182;BME280;51963;46.052;14.544;2022-11-15T09:54:29;98289.22;;;13.17;100.00
56182;BME280;51963;46.052;14.544;2022-11-15T10:05:22;98273.09;;;12.99;100.00
56182;BME280;51963;46.052;14.544;2022-11-15T10:08:01;98273.53;;;12.89;100.00
56182;BME280;51963;46.052;14.544;2022-11-15T10:13:04;98241.09;;;12.60;100.00
56182;BME280;51963;46.052;14.544;2022-11-15T10:15:29;98247.19;;;12.60;100.00
56182;BME280;51963;46.052;14.544;2022-11-15T10:18:02;98260.88;;;12.51;100.00
56182;BME280;51963;46.052;14.544;2022-11-15T10:20:39;98247.00;;;12.49;100.00
56182;BME280;51963;46.052;14.544;2022-11-15T10:23:11;98245.97;;;12.50;100.00
56182;BME280;51963;46.052;14.544;2022-11-15T10:25:38;98246.16;;;12.28;100.00
56182;BME280;51963;46.052;14.544;2022-11-15T10:28:22;98238.00;;;12.29;100.00
56182;BME280;51963;46.052;14.544;2022-11-15T10:30:54;98234.97;;;12.53;100.00
56182;BME280;51963;46.052;14.544;2022-11-15T10:33:36;98221.28;;;12.83;100.00
56182;BME280;51963;46.052;14.544;2022-11-15T10:41:20;98212.31;;;12.84;100.00
56182;BME280;51963;46.052;14.544;2022-11-15T10:46:42;98201.19;;;13.20;100.00
56182;BME280;51963;46.052;14.544;2022-11-15T10:49:20;98197.50;;;13.35;100.00
56182;BME280;51963;46.052;14.544;2022-11-15T10:51:48;98196.09;;;13.19;100.00
56182;BME280;51963;46.052;14.544;2022-11-15T10:54:23;98187.59;;;13.62;100.00
56182;BME280;51963;46.052;14.544;2022-11-15T10:56:52;98173.19;;;13.84;100.00
56182;BME280;51963;46.052;14.544;2022-11-15T10:59:26;98179.31;;;13.84;100.00
56182;BME280;51963;46.052;14.544;2022-11-15T11:01:53;98181.72;;;13.92;100.00
56182;BME280;51963;46.052;14.544;2022-11-15T11:04:19;98173.72;;;13.92;100.00
56182;BME280;51963;46.052;14.544;2022-11-15T11:09:30;98160.69;;;13.39;100.00
56182;BME280;51963;46.052;14.544;2022-11-15T11:11:56;98149.00;;;13.60;100.00
56182;BME280;51963;46.052;14.544;2022-11-15T11:14:32;98139.84;;;13.56;100.00
56182;BME280;51963;46.052;14.544;2022-11-15T11:19:55;98145.69;;;13.97;99.29
56182;BME280;51963;46.052;14.544;2022-11-15T11:31:05;98135.31;;;13.95;97.41
56182;BME280;51963;46.052;14.544;2022-11-15T11:34:27;98138.31;;;13.99;97.99
56182;BME280;51963;46.052;14.544;2022-11-15T11:37:04;98127.03;;;13.78;99.26
56182;BME280;51963;46.052;14.544;2022-11-15T11:39:51;98114.00;;;13.70;98.49
56182;BME280;51963;46.052;14.544;2022-11-15T11:45:52;98118.69;;;14.00;95.95
56182;BME280;51963;46.052;14.544;2022-11-15T11:48:45;98104.69;;;14.11;95.14
56182;BME280;51963;46.052;14.544;2022-11-15T11:51:26;98092.25;;;15.11;90.52
56182;BME280;51963;46.052;14.544;2022-11-15T11:54:03;98089.47;;;16.46;83.68
56182;BME280;51963;46.052;14.544;2022-11-15T11:56:36;98083.69;;;16.37;83.32
56182;BME280;51963;46.052;14.544;2022-11-15T12:01:42;98082.47;;;17.33;77.27
56182;BME280;51963;46.052;14.544;2022-11-15T12:04:39;98074.47;;;17.50;77.02
56182;BME280;51963;46.052;14.544;2022-11-15T12:07:24;98066.00;;;17.24;79.28
56182;BME280;51963;46.052;14.544;2022-11-15T12:10:23;98055.97;;;16.38;81.01
56182;BME280;51963;46.052;14.544;2022-11-15T12:13:10;98053.84;;;16.64;80.69
56182;BME280;51963;46.052;14.544;2022-11-15T12:15:43;98058.88;;;15.82;82.45
56182;BME280;51963;46.052;14.544;2022-11-15T12:18:15;98046.66;;;15.50;84.52
56182;BME280;51963;46.052;14.544;2022-11-15T12:20:55;98053.78;;;15.68;84.79
56182;BME280;51963;46.052;14.544;2022-11-15T12:23:29;98043.31;;;14.94;86.69
56182;BME280;51963;46.052;14.544;2022-11-15T12:26:18;98040.78;;;14.99;90.76
56182;BME280;51963;46.052;14.544;2022-11-15T12:28:54;98038.00;;;14.75;90.59
56182;BME280;51963;46.052;14.544;2022-11-15T12:33:57;98032.91;;;14.36;94.01
56182;BME280;51963;46.052;14.544;2022-11-15T12:41:18;98018.78;;;14.92;89.91
56182;BME280;51963;46.052;14.544;2022-11-15T12:43:45;98034.91;;;15.28;87.03
56182;BME280;51963;46.052;14.544;2022-11-15T12:48:53;98014.00;;;15.13;87.14
56182;BME280;51963;46.052;14.544;2022-11-15T12:51:20;98010.66;;;14.87;88.85
56182;BME280;51963;46.052;14.544;2022-11-15T12:53:46;98013.75;;;14.84;87.20
56182;BME280;51963;46.052;14.544;2022-11-15T13:12:49;97996.75;;;14.29;84.43
56182;BME280;51963;46.052;14.544;2022-11-15T13:14:58;97988.47;;;14.56;83.06
56182;BME280;51963;46.052;14.544;2022-11-15T13:17:44;97995.69;;;15.04;80.75
56182;BME280;51963;46.052;14.544;2022-11-15T13:22:49;97989.31;;;15.05;81.39
56182;BME280;51963;46.052;14.544;2022-11-15T13:27:52;97985.38;;;14.77;78.83
56182;BME280;51963;46.052;14.544;2022-11-15T13:30:29;97995.81;;;14.23;82.29
56182;BME280;51963;46.052;14.544;2022-11-15T13:32:58;97987.56;;;13.87;83.97
56182;BME280;51963;46.052;14.544;2022-11-15T13:35:38;97993.13;;;13.79;85.01
56182;BME280;51963;46.052;14.544;2022-11-15T13:38:05;97987.09;;;14.72;81.52
56182;BME280;51963;46.052;14.544;2022-11-15T13:40:37;97977.69;;;14.69;80.66
56182;BME280;51963;46.052;14.544;2022-11-15T13:43:35;97979.16;;;14.84;80.27
56182;BME280;51963;46.052;14.544;2022-11-15T13:48:33;97980.75;;;14.35;82.83
56182;BME280;51963;46.052;14.544;2022-11-15T13:51:01;97967.66;;;14.71;82.17
56182;BME280;51963;46.052;14.544;2022-11-15T13:53:31;97970.81;;;15.10;79.13
56182;BME280;51963;46.052;14.544;2022-11-15T13:55:58;97963.25;;;15.50;77.60
56182;BME280;51963;46.052;14.544;2022-11-15T13:58:27;97947.97;;;15.45;76.55
56182;BME280;51963;46.052;14.544;2022-11-15T14:01:02;97969.31;;;15.15;77.85
56182;BME280;51963;46.052;14.544;2022-11-15T14:03:32;97968.00;;;14.93;78.81
56182;BME280;51963;46.052;14.544;2022-11-15T14:06:06;97961.59;;;15.25;77.77
56182;BME280;51963;46.052;14.544;2022-11-15T14:08:34;97962.72;;;15.83;75.87
56182;BME280;51963;46.052;14.544;2022-11-15T14:11:15;97961.19;;;16.35;73.44
56182;BME280;51963;46.052;14.544;2022-11-15T14:14:04;97962.97;;;16.30;74.31
56182;BME280;51963;46.052;14.544;2022-11-15T14:19:05;97953.66;;;14.94;80.70
56182;BME280;51963;46.052;14.544;2022-11-15T14:21:32;97947.88;;;14.30;84.59
56182;BME280;51963;46.052;14.544;2022-11-15T14:24:18;97945.88;;;14.06;86.60
56182;BME280;51963;46.052;14.544;2022-11-15T14:26:47;97947.38;;;13.77;88.37
56182;BME280;51963;46.052;14.544;2022-11-15T14:29:29;97948.66;;;13.49;90.24
56182;BME280;51963;46.052;14.544;2022-11-15T14:32:16;97942.56;;;13.42;91.53
56182;BME280;51963;46.052;14.544;2022-11-15T14:34:42;97943.63;;;13.02;93.65
56182;BME280;51963;46.052;14.544;2022-11-15T14:37:19;97943.78;;;13.07;93.18
56182;BME280;51963;46.052;14.544;2022-11-15T14:39:46;97934.28;;;12.93;94.63
56182;BME280;51963;46.052;14.544;2022-11-15T14:42:11;97942.09;;;12.87;94.93
56182;BME280;51963;46.052;14.544;2022-11-15T14:44:40;97930.91;;;12.79;95.43
56182;BME280;51963;46.052;14.544;2022-11-15T14:47:08;97915.28;;;12.64;95.68
56182;BME280;51963;46.052;14.544;2022-11-15T14:49:34;97932.63;;;12.66;96.39
56182;BME280;51963;46.052;14.544;2022-11-15T14:52:00;97917.00;;;12.44;96.95
56182;BME280;51963;46.052;14.544;2022-11-15T14:54:25;97923.28;;;12.57;97.33
56182;BME280;51963;46.052;14.544;2022-11-15T14:56:51;97923.47;;;12.55;97.45
56182;BME280;51963;46.052;14.544;2022-11-15T14:59:17;97915.53;;;12.55;96.86
56182;BME280;51963;46.052;14.544;2022-11-15T15:01:45;97904.72;;;12.50;97.17
56182;BME280;51963;46.052;14.544;2022-11-15T15:04:11;97885.38;;;12.50;97.90
56182;BME280;51963;46.052;14.544;2022-11-15T15:06:37;97912.06;;;12.55;97.13
56182;BME280;51963;46.052;14.544;2022-11-15T15:09:03;97910.94;;;12.37;97.62
56182;BME280;51963;46.052;14.544;2022-11-15T15:11:31;97911.28;;;12.47;98.39
56182;BME280;51963;46.052;14.544;2022-11-15T15:13:57;97909.66;;;12.46;97.41
56182;BME280;51963;46.052;14.544;2022-11-15T15:16:25;97911.25;;;12.54;97.44
56182;BME280;51963;46.052;14.544;2022-11-15T15:18:51;97897.00;;;12.49;97.96
56182;BME280;51963;46.052;14.544;2022-11-15T15:21:23;97906.41;;;12.44;98.10
56182;BME280;51963;46.052;14.544;2022-11-15T15:23:50;97897.03;;;12.42;98.08
56182;BME280;51963;46.052;14.544;2022-11-15T15:26:16;97904.00;;;12.29;98.53
56182;BME280;51963;46.052;14.544;2022-11-15T15:28:42;97895.44;;;12.27;98.87
56182;BME280;51963;46.052;14.544;2022-11-15T15:31:11;97894.25;;;12.23;99.70
56182;BME280;51963;46.052;14.544;2022-11-15T15:33:37;97895.94;;;12.11;99.33
56182;BME280;51963;46.052;14.544;2022-11-15T15:36:03;97894.72;;;12.07;99.96
56182;BME280;51963;46.052;14.544;2022-11-15T15:38:29;97886.94;;;12.18;99.29
56182;BME280;51963;46.052;14.544;2022-11-15T15:40:55;97892.47;;;12.03;100.00
56182;BME280;51963;46.052;14.544;2022-11-15T15:43:20;97893.91;;;12.06;100.00
56182;BME280;51963;46.052;14.544;2022-11-15T15:45:46;97899.19;;;11.99;100.00
56182;BME280;51963;46.052;14.544;2022-11-15T15:48:14;97896.75;;;11.98;100.00
56182;BME280;51963;46.052;14.544;2022-11-15T15:50:40;97890.25;;;11.94;100.00
56182;BME280;51963;46.052;14.544;2022-11-15T15:53:09;97899.00;;;12.08;100.00